Time;durP1;ratioP1;P1;durP2;ratioP2;P2;SDS_P1;SDS_P2;PMS_P1;PMS_P2;Temp;Humidity;BMP_temperature;BMP_pressure;BME280_temperature;BME280_humidity;BME280_pressure;Samples;Min_cycle;Max_cycle;Signal;HPM_P1;HPM_P2
2022/07/18 00:00:17;;;;;;;;;;;;;;;;;;4850729;29;19934;-86
2022/07/18 00:02:54;;;;;;;;;;;;;;;;;;4844463;29;20036;-87
2022/07/18 00:05:35;;;;;;;;;;;;;;;;;;4844888;29;20018;-86
2022/07/18 00:08:04;;;;;;;;;;;;;;;;;;4842537;29;19936;-86
2022/07/18 00:10:51;;;;;;;;;;;;;;;;;;4848225;29;20607;-86
2022/07/18 00:13:18;;;;;;;;;;;;;;;;;;4858103;29;19938;-87
2022/07/18 00:15:51;;;;;;;;;;;;;;;;;;4832849;29;19967;-87
2022/07/18 00:18:18;;;;;;;;;;;;;;;;;;4856149;29;20060;-87
2022/07/18 00:20:51;;;;;;;;;;;;;;;;;;4861577;29;20057;-87
2022/07/18 00:23:18;;;;;;;;;;;;;;;;;;4864235;29;19965;-88
2022/07/18 00:25:49;;;;;;;;;;;;;;;;;;4848634;29;21490;-87
2022/07/18 00:28:16;;;;;;;;;;;;;;;;;;4868781;29;20018;-87
2022/07/18 00:30:43;;;;;;;;;;;;;;;;;;4857161;29;19930;-87
2022/07/18 00:33:12;;;;;;;;;;;;;;;;;;4879330;29;19982;-87
2022/07/18 00:35:39;;;;;;;;;;;;;;;;;;4869873;29;19939;-86
2022/07/18 00:38:07;;;;;;;;;;;;;;;;;;4862365;29;20275;-87
2022/07/18 00:40:34;;;;;;;;;;;;;;;;;;4868736;29;19931;-86
2022/07/18 00:43:00;;;;;;;;;;;;;;;;;;4867603;29;19931;-86
2022/07/18 00:45:28;;;;;;;;;;;;;;;;;;4873719;29;20049;-84
2022/07/18 00:47:54;;;;;;;;;;;;;;;;;;4850629;29;19978;-84
2022/07/18 00:50:20;;;;;;;;;;;;;;;;;;4850429;29;19927;-84
2022/07/18 00:52:47;;;;;;;;;;;;;;;;;;4860376;29;19974;-84
2022/07/18 00:55:23;;;;;;;;;;;;;;;;;;4880350;29;19927;-84
2022/07/18 00:57:49;;;;;;;;;;;;;;;;;;4863590;29;19931;-84
2022/07/18 01:03:07;;;;;;;;;;;;;;;;;;4879841;29;19935;-84
2022/07/18 01:05:33;;;;;;;;;;;;;;;;;;4866606;29;19938;-84
2022/07/18 01:08:00;;;;;;;;;;;;;;;;;;4862489;29;19939;-84
2022/07/18 01:10:26;;;;;;;;;;;;;;;;;;4858371;29;20270;-84
2022/07/18 01:12:55;;;;;;;;;;;;;;;;;;4880910;29;19942;-84
2022/07/18 01:15:22;;;;;;;;;;;;;;;;;;4863287;29;20572;-84
2022/07/18 01:17:49;;;;;;;;;;;;;;;;;;4872125;29;20377;-84
2022/07/18 01:20:17;;;;;;;;;;;;;;;;;;4846435;29;20490;-84
2022/07/18 01:22:43;;;;;;;;;;;;;;;;;;4860254;29;19995;-84
2022/07/18 01:25:20;;;;;;;;;;;;;;;;;;4878904;29;19938;-84
2022/07/18 01:27:50;;;;;;;;;;;;;;;;;;4842553;29;19936;-84
2022/07/18 01:30:18;;;;;;;;;;;;;;;;;;4862326;29;19935;-84
2022/07/18 01:32:45;;;;;;;;;;;;;;;;;;4859759;29;19983;-84
2022/07/18 01:35:12;;;;;;;;;;;;;;;;;;4842371;29;19939;-84
2022/07/18 01:37:39;;;;;;;;;;;;;;;;;;4873479;29;20050;-84
2022/07/18 01:40:07;;;;;;;;;;;;;;;;;;4842157;29;19928;-84
2022/07/18 01:42:32;;;;;;;;;;;;;;;;;;4860805;29;19974;-84
2022/07/18 01:45:00;;;;;;;;;;;;;;;;;;4853431;29;19933;-85
2022/07/18 01:47:27;;;;;;;;;;;;;;;;;;4863352;29;19974;-84
2022/07/18 01:49:53;;;;;;;;;;;;;;;;;;4859614;29;19970;-83
2022/07/18 01:52:19;;;;;;;;;;;;;;;;;;4850552;29;20062;-84
2022/07/18 01:54:46;;;;;;;;;;;;;;;;;;4852364;29;19931;-84
2022/07/18 01:57:18;;;;;;;;;;;;;;;;;;4869975;29;19942;-84
2022/07/18 02:00:04;;;;;;;;;;;;;;;;;;4867584;29;20015;-87
2022/07/18 02:02:31;;;;;;;;;;;;;;;;;;4882060;29;19949;-87
2022/07/18 02:05:01;;;;;;;;;;;;;;;;;;4848013;29;19969;-86
2022/07/18 02:07:39;;;;;;;;;;;;;;;;;;4863439;29;19938;-86
2022/07/18 02:10:07;;;;;;;;;;;;;;;;;;4864166;29;19931;-86
2022/07/18 02:12:33;;;;;;;;;;;;;;;;;;4865677;29;20034;-86
2022/07/18 02:14:59;;;;;;;;;;;;;;;;;;4876617;29;20028;-86
2022/07/18 02:17:25;;;;;;;;;;;;;;;;;;4872706;29;20377;-87
2022/07/18 02:19:52;;;;;;;;;;;;;;;;;;4865268;29;20365;-87
2022/07/18 02:22:18;;;;;;;;;;;;;;;;;;4891101;29;20013;-87
2022/07/18 02:24:44;;;;;;;;;;;;;;;;;;4872460;29;19927;-87
2022/07/18 02:27:11;;;;;;;;;;;;;;;;;;4885993;29;19923;-86
2022/07/18 02:29:39;;;;;;;;;;;;;;;;;;4874661;29;20428;-86
2022/07/18 02:32:06;;;;;;;;;;;;;;;;;;4869843;29;20362;-87
2022/07/18 02:34:53;;;;;;;;;;;;;;;;;;4847033;29;19931;-86
2022/07/18 02:37:25;;;;;;;;;;;;;;;;;;4871905;29;20029;-86
2022/07/18 02:39:53;;;;;;;;;;;;;;;;;;4848084;29;20926;-87
2022/07/18 02:42:20;;;;;;;;;;;;;;;;;;4833330;29;20006;-86
2022/07/18 02:44:47;;;;;;;;;;;;;;;;;;4843493;29;19923;-87
2022/07/18 02:47:20;;;;;;;;;;;;;;;;;;4836810;29;19938;-87
2022/07/18 02:49:47;;;;;;;;;;;;;;;;;;4851715;29;20026;-87
2022/07/18 02:52:15;;;;;;;;;;;;;;;;;;4854523;29;19931;-87
2022/07/18 02:54:41;;;;;;;;;;;;;;;;;;4836150;29;19927;-87
2022/07/18 02:57:17;;;;;;;;;;;;;;;;;;4848832;29;19976;-86
2022/07/18 02:59:45;;;;;;;;;;;;;;;;;;4841189;29;22412;-87
2022/07/18 03:02:12;;;;;;;;;;;;;;;;;;4858441;29;19927;-87
2022/07/18 03:04:40;;;;;;;;;;;;;;;;;;4839727;29;19939;-87
2022/07/18 03:07:07;;;;;;;;;;;;;;;;;;4838412;29;19937;-87
2022/07/18 03:09:34;;;;;;;;;;;;;;;;;;4846276;29;20031;-87
2022/07/18 03:12:05;;;;;;;;;;;;;;;;;;4825227;29;19932;-87
2022/07/18 03:14:41;;;;;;;;;;;;;;;;;;4852743;29;20022;-87
2022/07/18 03:17:08;;;;;;;;;;;;;;;;;;4852942;29;19985;-87
2022/07/18 03:19:35;;;;;;;;;;;;;;;;;;4870135;29;19975;-87
2022/07/18 03:22:03;;;;;;;;;;;;;;;;;;4872599;29;20099;-87
2022/07/18 03:24:29;;;;;;;;;;;;;;;;;;4863653;29;19970;-87
2022/07/18 03:26:55;;;;;;;;;;;;;;;;;;4858368;29;20042;-87
2022/07/18 03:29:21;;;;;;;;;;;;;;;;;;4841298;29;19971;-88
2022/07/18 03:31:47;;;;;;;;;;;;;;;;;;4854154;29;19974;-87
2022/07/18 03:34:16;;;;;;;;;;;;;;;;;;4879636;29;19938;-87
2022/07/18 03:36:58;;;;;;;;;;;;;;;;;;4823094;29;19984;-87
2022/07/18 03:39:25;;;;;;;;;;;;;;;;;;4803120;29;22176;-87
2022/07/18 03:41:52;;;;;;;;;;;;;;;;;;4797435;29;20463;-87
2022/07/18 03:44:18;;;;;;;;;;;;;;;;;;4818153;29;19959;-87
2022/07/18 03:46:44;;;;;;;;;;;;;;;;;;4802253;29;19953;-87
2022/07/18 03:49:12;;;;;;;;;;;;;;;;;;4797343;29;19975;-87
2022/07/18 03:51:43;;;;;;;;;;;;;;;;;;4810237;29;19978;-87
2022/07/18 03:54:09;;;;;;;;;;;;;;;;;;4807527;29;19958;-86
2022/07/18 03:56:35;;;;;;;;;;;;;;;;;;4813481;29;19932;-86
2022/07/18 03:59:01;;;;;;;;;;;;;;;;;;4816455;29;20407;-85
2022/07/18 04:01:29;;;;;;;;;;;;;;;;;;4822300;29;19924;-84
2022/07/18 04:03:55;;;;;;;;;;;;;;;;;;4825540;29;21351;-85
2022/07/18 04:06:26;;;;;;;;;;;;;;;;;;4819128;29;19980;-85
2022/07/18 04:08:57;;;;;;;;;;;;;;;;;;4869436;29;19986;-85
2022/07/18 04:11:23;;;;;;;;;;;;;;;;;;4878817;29;19927;-85
2022/07/18 04:13:51;;;;;;;;;;;;;;;;;;4870321;29;19927;-85
2022/07/18 04:16:18;;;;;;;;;;;;;;;;;;4862442;29;20421;-82
2022/07/18 04:18:43;;;;;;;;;;;;;;;;;;4888080;29;19923;-83
2022/07/18 04:21:09;;;;;;;;;;;;;;;;;;4887898;29;20434;-83
2022/07/18 04:23:40;;;;;;;;;;;;;;;;;;4886950;29;19930;-83
2022/07/18 04:26:07;;;;;;;;;;;;;;;;;;4866848;29;19986;-84
2022/07/18 04:28:34;;;;;;;;;;;;;;;;;;4870266;29;19935;-82
2022/07/18 04:31:16;;;;;;;;;;;;;;;;;;4888000;29;20338;-83
2022/07/18 04:33:43;;;;;;;;;;;;;;;;;;4883064;29;19927;-83
2022/07/18 04:36:10;;;;;;;;;;;;;;;;;;4882694;29;20022;-82
2022/07/18 04:38:38;;;;;;;;;;;;;;;;;;4889660;29;20250;-81
2022/07/18 04:41:04;;;;;;;;;;;;;;;;;;4887667;29;19942;-82
2022/07/18 04:43:32;;;;;;;;;;;;;;;;;;4890529;29;20082;-84
2022/07/18 04:45:58;;;;;;;;;;;;;;;;;;4885934;29;19945;-84
2022/07/18 04:48:24;;;;;;;;;;;;;;;;;;4891678;29;19958;-84
2022/07/18 04:50:51;;;;;;;;;;;;;;;;;;4883831;29;19977;-84
2022/07/18 04:53:17;;;;;;;;;;;;;;;;;;4880773;29;20034;-84
2022/07/18 04:55:44;;;;;;;;;;;;;;;;;;4860904;29;20418;-85
2022/07/18 04:58:10;;;;;;;;;;;;;;;;;;4857874;29;20026;-85
2022/07/18 05:00:37;;;;;;;;;;;;;;;;;;4853424;29;19937;-84
2022/07/18 05:03:04;;;;;;;;;;;;;;;;;;4829452;29;20020;-84
2022/07/18 05:05:31;;;;;;;;;;;;;;;;;;4860743;29;19931;-84
2022/07/18 05:08:13;;;;;;;;;;;;;;;;;;4807902;29;20106;-84
2022/07/18 05:10:39;;;;;;;;;;;;;;;;;;4804912;29;22364;-85
2022/07/18 05:13:11;;;;;;;;;;;;;;;;;;4796402;29;20172;-85
2022/07/18 05:15:38;;;;;;;;;;;;;;;;;;4818479;29;19936;-84
2022/07/18 05:18:04;;;;;;;;;;;;;;;;;;4798718;29;20779;-84
2022/07/18 05:20:32;;;;;;;;;;;;;;;;;;4819641;29;19932;-81
2022/07/18 05:22:58;;;;;;;;;;;;;;;;;;4815627;29;19943;-82
2022/07/18 05:25:25;;;;;;;;;;;;;;;;;;4817501;29;20008;-82
2022/07/18 05:27:52;;;;;;;;;;;;;;;;;;4816114;29;19936;-82
2022/07/18 05:30:19;;;;;;;;;;;;;;;;;;4821839;29;19928;-82
2022/07/18 05:32:46;;;;;;;;;;;;;;;;;;4820286;29;19939;-82
2022/07/18 05:35:15;;;;;;;;;;;;;;;;;;4826357;29;19928;-82
2022/07/18 05:37:50;;;;;;;;;;;;;;;;;;4824093;29;19932;-82
2022/07/18 05:40:17;;;;;;;;;;;;;;;;;;4867267;29;22180;-83
2022/07/18 05:42:44;;;;;;;;;;;;;;;;;;4864686;29;19932;-82
2022/07/18 05:45:14;;;;;;;;;;;;;;;;;;4884747;29;20069;-82
2022/07/18 05:47:41;;;;;;;;;;;;;;;;;;4849995;29;19940;-82
2022/07/18 05:50:11;;;;;;;;;;;;;;;;;;4858938;29;19947;-82
2022/07/18 05:52:37;;;;;;;;;;;;;;;;;;4870268;29;19931;-82
2022/07/18 05:55:05;;;;;;;;;;;;;;;;;;4885198;29;19931;-82
2022/07/18 05:57:31;;;;;;;;;;;;;;;;;;4883499;29;19930;-83
2022/07/18 05:59:58;;;;;;;;;;;;;;;;;;4864412;29;20097;-82
2022/07/18 06:02:25;;;;;;;;;;;;;;;;;;4890885;29;20275;-82
2022/07/18 06:04:51;;;;;;;;;;;;;;;;;;4864269;29;20315;-82
2022/07/18 06:07:18;;;;;;;;;;;;;;;;;;4869088;29;19966;-82
2022/07/18 06:09:44;;;;;;;;;;;;;;;;;;4871195;29;20031;-82
2022/07/18 06:12:17;;;;;;;;;;;;;;;;;;4868947;29;19938;-82
2022/07/18 06:14:44;;;;;;;;;;;;;;;;;;4870808;29;20051;-82
2022/07/18 06:17:11;;;;;;;;;;;;;;;;;;4849311;29;19930;-82
2022/07/18 06:19:39;;;;;;;;;;;;;;;;;;4891759;29;19966;-82
2022/07/18 06:22:06;;;;;;;;;;;;;;;;;;4873079;29;19927;-82
2022/07/18 06:24:32;;;;;;;;;;;;;;;;;;4885735;29;19923;-82
2022/07/18 06:26:58;;;;;;;;;;;;;;;;;;4862302;29;20377;-82
2022/07/18 06:29:33;;;;;;;;;;;;;;;;;;4890832;29;19978;-82
2022/07/18 06:32:17;;;;;;;;;;;;;;;;;;4885017;29;19926;-82
2022/07/18 06:34:43;;;;;;;;;;;;;;;;;;4873318;29;19927;-83
2022/07/18 06:37:10;;;;;;;;;;;;;;;;;;4867263;29;19959;-83
2022/07/18 06:39:38;;;;;;;;;;;;;;;;;;4872044;29;19927;-83
2022/07/18 06:42:05;;;;;;;;;;;;;;;;;;4875537;29;20030;-82
2022/07/18 06:44:32;;;;;;;;;;;;;;;;;;4881411;29;19934;-83
2022/07/18 06:46:59;;;;;;;;;;;;;;;;;;4875289;29;20468;-83
2022/07/18 06:49:28;;;;;;;;;;;;;;;;;;4868094;29;19951;-83
2022/07/18 06:51:53;;;;;;;;;;;;;;;;;;4858318;29;19931;-82
2022/07/18 06:54:26;;;;;;;;;;;;;;;;;;4858328;29;19931;-85
2022/07/18 06:56:52;;;;;;;;;;;;;;;;;;4877584;29;20413;-86
2022/07/18 06:59:19;;;;;;;;;;;;;;;;;;4877466;29;19930;-87
2022/07/18 07:01:46;;;;;;;;;;;;;;;;;;4869785;29;19934;-87
2022/07/18 07:04:12;;;;;;;;;;;;;;;;;;4842460;29;20022;-87
2022/07/18 07:06:38;;;;;;;;;;;;;;;;;;4833546;29;19927;-87
2022/07/18 07:09:11;;;;;;;;;;;;;;;;;;4838360;29;19942;-88
2022/07/18 07:11:37;;;;;;;;;;;;;;;;;;4852972;29;20018;-88
2022/07/18 07:14:10;;;;;;;;;;;;;;;;;;4817384;29;19942;-86
2022/07/18 07:16:37;;;;;;;;;;;;;;;;;;4838437;29;19971;-87
2022/07/18 07:19:04;;;;;;;;;;;;;;;;;;4829680;29;19932;-86
2022/07/18 07:21:32;;;;;;;;;;;;;;;;;;4853986;29;19989;-86
2022/07/18 07:23:58;;;;;;;;;;;;;;;;;;4849340;29;20049;-86
2022/07/18 07:26:33;;;;;;;;;;;;;;;;;;4852413;29;19935;-86
2022/07/18 07:29:00;;;;;;;;;;;;;;;;;;4853739;29;19947;-87
2022/07/18 07:31:26;;;;;;;;;;;;;;;;;;4839996;29;20800;-87
2022/07/18 07:33:55;;;;;;;;;;;;;;;;;;4852127;29;20014;-88
2022/07/18 07:36:23;;;;;;;;;;;;;;;;;;4894413;29;19987;-87
2022/07/18 07:39:13;;;;;;;;;;;;;;;;;;4853443;29;19928;-86
2022/07/18 07:41:43;;;;;;;;;;;;;;;;;;4838509;29;20058;-87
2022/07/18 07:44:10;;;;;;;;;;;;;;;;;;4849502;29;19935;-88
2022/07/18 07:46:52;;;;;;;;;;;;;;;;;;4845504;29;19998;-87
2022/07/18 07:49:24;;;;;;;;;;;;;;;;;;4844492;29;19943;-87
2022/07/18 07:51:51;;;;;;;;;;;;;;;;;;4812827;29;19931;-87
2022/07/18 07:54:18;;;;;;;;;;;;;;;;;;4845757;29;19935;-87
2022/07/18 07:56:44;;;;;;;;;;;;;;;;;;4849116;29;20307;-85
2022/07/18 07:59:18;;;;;;;;;;;;;;;;;;4848059;29;20046;-87
2022/07/18 08:01:58;;;;;;;;;;;;;;;;;;4839340;29;19943;-88
2022/07/18 08:04:24;;;;;;;;;;;;;;;;;;4843064;29;19934;-87
2022/07/18 08:06:50;;;;;;;;;;;;;;;;;;4838889;29;19923;-85
2022/07/18 08:09:16;;;;;;;;;;;;;;;;;;4845685;29;19936;-87
2022/07/18 08:11:51;;;;;;;;;;;;;;;;;;4839495;29;20411;-84
2022/07/18 08:14:17;;;;;;;;;;;;;;;;;;4842192;29;19988;-87
2022/07/18 08:16:44;;;;;;;;;;;;;;;;;;4844252;29;19932;-87
2022/07/18 08:19:13;;;;;;;;;;;;;;;;;;4850173;29;19982;-87
2022/07/18 08:21:42;;;;;;;;;;;;;;;;;;4856727;29;20348;-86
2022/07/18 08:24:09;;;;;;;;;;;;;;;;;;4865712;29;19939;-87
2022/07/18 08:26:38;;;;;;;;;;;;;;;;;;4870497;29;19931;-89
2022/07/18 08:29:09;;;;;;;;;;;;;;;;;;4885460;29;22993;-83
2022/07/18 08:31:36;;;;;;;;;;;;;;;;;;4896450;29;20051;-83
2022/07/18 08:34:18;;;;;;;;;;;;;;;;;;4875134;29;20163;-87
2022/07/18 08:36:45;;;;;;;;;;;;;;;;;;4891039;29;20434;-87
2022/07/18 08:39:22;;;;;;;;;;;;;;;;;;4886279;29;20537;-88
2022/07/18 08:41:48;;;;;;;;;;;;;;;;;;4866802;29;19930;-88
2022/07/18 08:44:29;;;;;;;;;;;;;;;;;;4850650;29;19931;-88
2022/07/18 08:46:56;;;;;;;;;;;;;;;;;;4820406;29;19988;-88
2022/07/18 08:49:22;;;;;;;;;;;;;;;;;;4852007;29;19931;-87
2022/07/18 08:51:49;;;;;;;;;;;;;;;;;;4824450;29;20017;-87
2022/07/18 08:54:30;;;;;;;;;;;;;;;;;;4785944;29;20388;-86
2022/07/18 08:56:57;;;;;;;;;;;;;;;;;;4764056;29;20419;-88
2022/07/18 08:59:40;;;;;;;;;;;;;;;;;;4752009;29;20430;-87
2022/07/18 09:02:07;;;;;;;;;;;;;;;;;;4754119;29;20293;-87
2022/07/18 09:04:34;;;;;;;;;;;;;;;;;;4741833;29;19940;-87
2022/07/18 09:07:00;;;;;;;;;;;;;;;;;;4733058;29;20406;-87
2022/07/18 09:09:28;;;;;;;;;;;;;;;;;;4738379;29;20497;-88
2022/07/18 09:11:54;;;;;;;;;;;;;;;;;;4725816;29;20491;-87
2022/07/18 09:14:20;;;;;;;;;;;;;;;;;;4750788;29;20023;-87
2022/07/18 09:17:01;;;;;;;;;;;;;;;;;;4788449;29;19940;-88
2022/07/18 09:19:28;;;;;;;;;;;;;;;;;;4787129;29;19929;-87
2022/07/18 09:21:57;;;;;;;;;;;;;;;;;;4786254;29;19926;-87
2022/07/18 09:24:43;;;;;;;;;;;;;;;;;;4788071;29;20488;-87
2022/07/18 09:27:09;;;;;;;;;;;;;;;;;;4802802;29;19936;-87
2022/07/18 09:29:45;;;;;;;;;;;;;;;;;;4810916;29;19932;-87
2022/07/18 09:32:12;;;;;;;;;;;;;;;;;;4830553;29;20400;-87
2022/07/18 09:34:54;;;;;;;;;;;;;;;;;;4846322;29;20449;-87
2022/07/18 09:37:20;;;;;;;;;;;;;;;;;;4864547;29;19967;-87
2022/07/18 09:39:47;;;;;;;;;;;;;;;;;;4855141;29;19931;-87
2022/07/18 09:42:17;;;;;;;;;;;;;;;;;;4862466;29;20485;-87
2022/07/18 09:44:44;;;;;;;;;;;;;;;;;;4865810;29;19954;-87
2022/07/18 09:47:10;;;;;;;;;;;;;;;;;;4832332;29;20049;-87
2022/07/18 09:49:39;;;;;;;;;;;;;;;;;;4854178;29;19935;-86
2022/07/18 09:52:08;;;;;;;;;;;;;;;;;;4853974;29;19938;-87
2022/07/18 09:54:35;;;;;;;;;;;;;;;;;;4871655;29;19935;-87
2022/07/18 09:57:01;;;;;;;;;;;;;;;;;;4855022;29;19935;-86
2022/07/18 09:59:27;;;;;;;;;;;;;;;;;;4870668;29;19931;-87
2022/07/18 10:01:54;;;;;;;;;;;;;;;;;;4849611;29;20006;-87
2022/07/18 10:04:21;;;;;;;;;;;;;;;;;;4837637;29;19972;-87
2022/07/18 10:06:48;;;;;;;;;;;;;;;;;;4869990;29;19923;-87
2022/07/18 10:09:16;;;;;;;;;;;;;;;;;;4873920;29;19934;-86
